sensor_id;sensor_type;location;lat;lon;timestamp;P1;durP1;ratioP1;P2;durP2;ratioP2
5616;SDS011;2830;50.656;7.568;2023-03-19T00:02:01;16.10;;;6.27;;
5616;SDS011;2830;50.656;7.568;2023-03-19T00:04:42;15.37;;;6.00;;
5616;SDS011;2830;50.656;7.568;2023-03-19T00:07:09;25.30;;;7.10;;
5616;SDS011;2830;50.656;7.568;2023-03-19T00:09:36;14.27;;;5.73;;
5616;SDS011;2830;50.656;7.568;2023-03-19T00:12:03;20.10;;;6.10;;
5616;SDS011;2830;50.656;7.568;2023-03-19T00:14:30;19.57;;;5.47;;
5616;SDS011;2830;50.656;7.568;2023-03-19T00:16:56;17.47;;;5.90;;
5616;SDS011;2830;50.656;7.568;2023-03-19T00:19:23;13.23;;;4.93;;
5616;SDS011;2830;50.656;7.568;2023-03-19T00:21:50;18.53;;;6.60;;
5616;SDS011;2830;50.656;7.568;2023-03-19T00:24:17;18.07;;;5.70;;
5616;SDS011;2830;50.656;7.568;2023-03-19T00:26:44;14.13;;;6.03;;
5616;SDS011;2830;50.656;7.568;2023-03-19T00:29:10;17.80;;;6.10;;
5616;SDS011;2830;50.656;7.568;2023-03-19T00:31:37;16.00;;;5.50;;
5616;SDS011;2830;50.656;7.568;2023-03-19T00:34:05;14.90;;;5.50;;
5616;SDS011;2830;50.656;7.568;2023-03-19T00:36:33;15.00;;;5.33;;
5616;SDS011;2830;50.656;7.568;2023-03-19T00:39:00;24.93;;;6.10;;
5616;SDS011;2830;50.656;7.568;2023-03-19T00:41:27;15.00;;;5.77;;
5616;SDS011;2830;50.656;7.568;2023-03-19T00:43:55;19.23;;;6.43;;
5616;SDS011;2830;50.656;7.568;2023-03-19T00:46:22;18.63;;;7.33;;
5616;SDS011;2830;50.656;7.568;2023-03-19T00:48:50;34.53;;;8.93;;
5616;SDS011;2830;50.656;7.568;2023-03-19T00:51:21;17.17;;;6.43;;
5616;SDS011;2830;50.656;7.568;2023-03-19T00:53:48;17.30;;;6.40;;
5616;SDS011;2830;50.656;7.568;2023-03-19T00:56:16;19.90;;;5.90;;
5616;SDS011;2830;50.656;7.568;2023-03-19T00:58:43;16.73;;;6.30;;
5616;SDS011;2830;50.656;7.568;2023-03-19T01:01:12;21.67;;;6.50;;
5616;SDS011;2830;50.656;7.568;2023-03-19T01:03:41;20.97;;;5.50;;
5616;SDS011;2830;50.656;7.568;2023-03-19T01:06:08;19.13;;;6.57;;
5616;SDS011;2830;50.656;7.568;2023-03-19T01:08:35;14.20;;;5.60;;
5616;SDS011;2830;50.656;7.568;2023-03-19T01:11:06;17.70;;;6.70;;
5616;SDS011;2830;50.656;7.568;2023-03-19T01:13:38;16.43;;;5.50;;
5616;SDS011;2830;50.656;7.568;2023-03-19T01:16:04;15.13;;;5.20;;
5616;SDS011;2830;50.656;7.568;2023-03-19T01:18:32;18.20;;;5.90;;
5616;SDS011;2830;50.656;7.568;2023-03-19T01:20:59;16.80;;;6.20;;
5616;SDS011;2830;50.656;7.568;2023-03-19T01:23:26;16.17;;;6.00;;
5616;SDS011;2830;50.656;7.568;2023-03-19T01:25:53;15.30;;;5.23;;
5616;SDS011;2830;50.656;7.568;2023-03-19T01:28:19;18.70;;;7.13;;
5616;SDS011;2830;50.656;7.568;2023-03-19T01:30:47;14.77;;;5.20;;
5616;SDS011;2830;50.656;7.568;2023-03-19T01:33:14;15.97;;;6.73;;
5616;SDS011;2830;50.656;7.568;2023-03-19T01:35:41;15.97;;;6.10;;
5616;SDS011;2830;50.656;7.568;2023-03-19T01:38:08;18.73;;;5.80;;
5616;SDS011;2830;50.656;7.568;2023-03-19T01:40:35;16.70;;;5.80;;
5616;SDS011;2830;50.656;7.568;2023-03-19T01:43:16;16.17;;;5.50;;
5616;SDS011;2830;50.656;7.568;2023-03-19T01:45:49;20.73;;;5.73;;
5616;SDS011;2830;50.656;7.568;2023-03-19T01:48:24;19.00;;;6.90;;
5616;SDS011;2830;50.656;7.568;2023-03-19T01:51:07;25.07;;;8.10;;
5616;SDS011;2830;50.656;7.568;2023-03-19T01:53:36;17.70;;;5.53;;
5616;SDS011;2830;50.656;7.568;2023-03-19T01:56:26;18.20;;;7.23;;
5616;SDS011;2830;50.656;7.568;2023-03-19T01:59:02;17.53;;;5.97;;
5616;SDS011;2830;50.656;7.568;2023-03-19T02:01:33;15.50;;;4.90;;
5616;SDS011;2830;50.656;7.568;2023-03-19T02:04:05;14.30;;;5.93;;
5616;SDS011;2830;50.656;7.568;2023-03-19T02:06:32;17.53;;;6.00;;
5616;SDS011;2830;50.656;7.568;2023-03-19T02:09:00;19.53;;;5.80;;
5616;SDS011;2830;50.656;7.568;2023-03-19T02:11:27;28.07;;;6.47;;
5616;SDS011;2830;50.656;7.568;2023-03-19T02:13:54;19.63;;;6.73;;
5616;SDS011;2830;50.656;7.568;2023-03-19T02:16:21;18.63;;;6.10;;
5616;SDS011;2830;50.656;7.568;2023-03-19T02:18:48;20.07;;;6.00;;
5616;SDS011;2830;50.656;7.568;2023-03-19T02:21:16;14.10;;;4.90;;
5616;SDS011;2830;50.656;7.568;2023-03-19T02:24:02;21.40;;;5.80;;
5616;SDS011;2830;50.656;7.568;2023-03-19T02:26:37;17.50;;;5.77;;
5616;SDS011;2830;50.656;7.568;2023-03-19T02:29:06;16.10;;;5.40;;
5616;SDS011;2830;50.656;7.568;2023-03-19T02:31:32;15.57;;;5.33;;
5616;SDS011;2830;50.656;7.568;2023-03-19T02:34:00;14.30;;;5.03;;
5616;SDS011;2830;50.656;7.568;2023-03-19T02:36:42;17.27;;;6.57;;
5616;SDS011;2830;50.656;7.568;2023-03-19T02:39:15;14.93;;;5.30;;
5616;SDS011;2830;50.656;7.568;2023-03-19T02:41:47;19.57;;;6.30;;
5616;SDS011;2830;50.656;7.568;2023-03-19T02:44:15;16.40;;;5.50;;
5616;SDS011;2830;50.656;7.568;2023-03-19T02:46:45;16.57;;;5.03;;
5616;SDS011;2830;50.656;7.568;2023-03-19T02:49:11;19.73;;;6.70;;
5616;SDS011;2830;50.656;7.568;2023-03-19T02:51:38;16.47;;;5.90;;
5616;SDS011;2830;50.656;7.568;2023-03-19T02:54:06;16.60;;;5.63;;
5616;SDS011;2830;50.656;7.568;2023-03-19T02:56:33;16.07;;;5.80;;
5616;SDS011;2830;50.656;7.568;2023-03-19T02:59:00;18.17;;;6.50;;
5616;SDS011;2830;50.656;7.568;2023-03-19T03:01:27;17.77;;;6.70;;
5616;SDS011;2830;50.656;7.568;2023-03-19T03:03:55;17.80;;;7.10;;
5616;SDS011;2830;50.656;7.568;2023-03-19T03:06:21;20.60;;;6.80;;
5616;SDS011;2830;50.656;7.568;2023-03-19T03:08:48;18.63;;;7.30;;
5616;SDS011;2830;50.656;7.568;2023-03-19T03:11:14;16.30;;;5.63;;
5616;SDS011;2830;50.656;7.568;2023-03-19T03:13:41;19.37;;;6.60;;
5616;SDS011;2830;50.656;7.568;2023-03-19T03:16:08;17.20;;;6.80;;
5616;SDS011;2830;50.656;7.568;2023-03-19T03:18:34;21.47;;;6.20;;
5616;SDS011;2830;50.656;7.568;2023-03-19T03:21:01;16.70;;;5.80;;
5616;SDS011;2830;50.656;7.568;2023-03-19T03:23:28;14.80;;;5.63;;
5616;SDS011;2830;50.656;7.568;2023-03-19T03:25:55;20.50;;;6.13;;
5616;SDS011;2830;50.656;7.568;2023-03-19T03:28:21;14.50;;;5.73;;
5616;SDS011;2830;50.656;7.568;2023-03-19T03:30:49;14.30;;;5.20;;
5616;SDS011;2830;50.656;7.568;2023-03-19T03:33:16;12.40;;;4.20;;
5616;SDS011;2830;50.656;7.568;2023-03-19T03:35:42;17.50;;;6.00;;
5616;SDS011;2830;50.656;7.568;2023-03-19T03:38:09;16.23;;;5.23;;
5616;SDS011;2830;50.656;7.568;2023-03-19T03:40:36;14.13;;;5.40;;
5616;SDS011;2830;50.656;7.568;2023-03-19T03:43:03;17.57;;;6.20;;
5616;SDS011;2830;50.656;7.568;2023-03-19T03:45:30;16.37;;;5.90;;
5616;SDS011;2830;50.656;7.568;2023-03-19T03:47:57;15.60;;;5.47;;
5616;SDS011;2830;50.656;7.568;2023-03-19T03:50:24;17.90;;;5.83;;
5616;SDS011;2830;50.656;7.568;2023-03-19T03:52:50;15.93;;;5.40;;
5616;SDS011;2830;50.656;7.568;2023-03-19T03:55:17;14.47;;;6.00;;
5616;SDS011;2830;50.656;7.568;2023-03-19T03:57:44;14.50;;;5.47;;
5616;SDS011;2830;50.656;7.568;2023-03-19T04:00:11;14.80;;;4.87;;
5616;SDS011;2830;50.656;7.568;2023-03-19T04:02:38;16.97;;;5.90;;
5616;SDS011;2830;50.656;7.568;2023-03-19T04:05:05;13.20;;;5.23;;
5616;SDS011;2830;50.656;7.568;2023-03-19T04:07:32;16.77;;;5.50;;
5616;SDS011;2830;50.656;7.568;2023-03-19T04:09:59;15.70;;;5.63;;
5616;SDS011;2830;50.656;7.568;2023-03-19T04:12:25;14.20;;;5.63;;
5616;SDS011;2830;50.656;7.568;2023-03-19T04:14:52;13.97;;;5.10;;
5616;SDS011;2830;50.656;7.568;2023-03-19T04:17:19;16.57;;;5.23;;
5616;SDS011;2830;50.656;7.568;2023-03-19T04:22:28;14.30;;;5.40;;
5616;SDS011;2830;50.656;7.568;2023-03-19T04:24:55;18.10;;;5.47;;
5616;SDS011;2830;50.656;7.568;2023-03-19T04:30:08;14.87;;;6.70;;
5616;SDS011;2830;50.656;7.568;2023-03-19T04:32:36;21.30;;;5.83;;
5616;SDS011;2830;50.656;7.568;2023-03-19T04:35:03;15.70;;;5.97;;
5616;SDS011;2830;50.656;7.568;2023-03-19T04:37:31;17.60;;;5.90;;
5616;SDS011;2830;50.656;7.568;2023-03-19T04:39:57;19.90;;;5.27;;
5616;SDS011;2830;50.656;7.568;2023-03-19T04:42:33;17.60;;;5.47;;
5616;SDS011;2830;50.656;7.568;2023-03-19T04:44:59;13.53;;;5.57;;
5616;SDS011;2830;50.656;7.568;2023-03-19T04:47:26;17.03;;;6.53;;
5616;SDS011;2830;50.656;7.568;2023-03-19T04:49:53;14.30;;;5.30;;
5616;SDS011;2830;50.656;7.568;2023-03-19T04:52:20;13.30;;;5.43;;
5616;SDS011;2830;50.656;7.568;2023-03-19T04:54:47;14.90;;;5.20;;
5616;SDS011;2830;50.656;7.568;2023-03-19T04:57:14;15.20;;;5.47;;
5616;SDS011;2830;50.656;7.568;2023-03-19T04:59:54;13.40;;;4.57;;
5616;SDS011;2830;50.656;7.568;2023-03-19T05:02:21;17.97;;;5.17;;
5616;SDS011;2830;50.656;7.568;2023-03-19T05:04:48;16.83;;;4.57;;
5616;SDS011;2830;50.656;7.568;2023-03-19T05:07:15;13.40;;;5.23;;
5616;SDS011;2830;50.656;7.568;2023-03-19T05:09:42;12.93;;;5.10;;
5616;SDS011;2830;50.656;7.568;2023-03-19T05:12:11;15.00;;;5.63;;
5616;SDS011;2830;50.656;7.568;2023-03-19T05:14:38;14.70;;;4.80;;
5616;SDS011;2830;50.656;7.568;2023-03-19T05:17:05;15.33;;;4.67;;
5616;SDS011;2830;50.656;7.568;2023-03-19T05:19:32;14.50;;;4.90;;
5616;SDS011;2830;50.656;7.568;2023-03-19T05:21:59;13.80;;;4.80;;
5616;SDS011;2830;50.656;7.568;2023-03-19T05:24:26;12.97;;;5.00;;
5616;SDS011;2830;50.656;7.568;2023-03-19T05:26:53;12.17;;;3.80;;
5616;SDS011;2830;50.656;7.568;2023-03-19T05:29:20;14.57;;;4.70;;
5616;SDS011;2830;50.656;7.568;2023-03-19T05:31:47;12.13;;;5.07;;
5616;SDS011;2830;50.656;7.568;2023-03-19T05:34:14;15.20;;;4.73;;
5616;SDS011;2830;50.656;7.568;2023-03-19T05:36:41;14.73;;;5.10;;
5616;SDS011;2830;50.656;7.568;2023-03-19T05:39:07;17.50;;;5.90;;
5616;SDS011;2830;50.656;7.568;2023-03-19T05:41:34;12.60;;;4.53;;
5616;SDS011;2830;50.656;7.568;2023-03-19T05:44:01;16.97;;;4.87;;
5616;SDS011;2830;50.656;7.568;2023-03-19T05:46:29;14.17;;;4.60;;
5616;SDS011;2830;50.656;7.568;2023-03-19T05:48:56;17.03;;;5.20;;
5616;SDS011;2830;50.656;7.568;2023-03-19T05:51:23;12.80;;;3.97;;
5616;SDS011;2830;50.656;7.568;2023-03-19T05:53:50;16.53;;;4.83;;
5616;SDS011;2830;50.656;7.568;2023-03-19T05:56:17;15.37;;;4.47;;
5616;SDS011;2830;50.656;7.568;2023-03-19T05:58:43;13.93;;;5.13;;
5616;SDS011;2830;50.656;7.568;2023-03-19T06:01:10;18.13;;;4.93;;
5616;SDS011;2830;50.656;7.568;2023-03-19T06:03:38;15.40;;;5.57;;
5616;SDS011;2830;50.656;7.568;2023-03-19T06:06:05;12.30;;;5.03;;
5616;SDS011;2830;50.656;7.568;2023-03-19T06:08:32;14.80;;;4.80;;
5616;SDS011;2830;50.656;7.568;2023-03-19T06:10:59;14.53;;;5.17;;
5616;SDS011;2830;50.656;7.568;2023-03-19T06:13:26;15.30;;;5.40;;
5616;SDS011;2830;50.656;7.568;2023-03-19T06:15:53;13.87;;;5.83;;
5616;SDS011;2830;50.656;7.568;2023-03-19T06:18:20;20.80;;;6.40;;
5616;SDS011;2830;50.656;7.568;2023-03-19T06:20:47;19.23;;;5.80;;
5616;SDS011;2830;50.656;7.568;2023-03-19T06:23:14;15.93;;;5.03;;
5616;SDS011;2830;50.656;7.568;2023-03-19T06:25:41;13.03;;;5.13;;
5616;SDS011;2830;50.656;7.568;2023-03-19T06:28:08;14.97;;;5.00;;
5616;SDS011;2830;50.656;7.568;2023-03-19T06:30:35;14.47;;;5.80;;
5616;SDS011;2830;50.656;7.568;2023-03-19T06:33:03;15.77;;;4.90;;
5616;SDS011;2830;50.656;7.568;2023-03-19T06:35:30;15.87;;;4.73;;
5616;SDS011;2830;50.656;7.568;2023-03-19T06:37:57;12.47;;;5.10;;
5616;SDS011;2830;50.656;7.568;2023-03-19T06:40:24;12.73;;;4.77;;
5616;SDS011;2830;50.656;7.568;2023-03-19T06:42:51;13.10;;;4.60;;
5616;SDS011;2830;50.656;7.568;2023-03-19T06:45:18;15.43;;;4.70;;
5616;SDS011;2830;50.656;7.568;2023-03-19T06:47:45;16.73;;;4.77;;
5616;SDS011;2830;50.656;7.568;2023-03-19T06:50:13;15.27;;;4.40;;
5616;SDS011;2830;50.656;7.568;2023-03-19T06:52:41;13.80;;;4.13;;
5616;SDS011;2830;50.656;7.568;2023-03-19T06:55:08;14.07;;;4.73;;
5616;SDS011;2830;50.656;7.568;2023-03-19T06:57:37;15.87;;;4.83;;
5616;SDS011;2830;50.656;7.568;2023-03-19T07:00:04;14.07;;;5.60;;
5616;SDS011;2830;50.656;7.568;2023-03-19T07:02:32;20.03;;;8.90;;
5616;SDS011;2830;50.656;7.568;2023-03-19T07:04:59;37.20;;;16.43;;
5616;SDS011;2830;50.656;7.568;2023-03-19T07:07:26;21.53;;;9.60;;
5616;SDS011;2830;50.656;7.568;2023-03-19T07:09:54;21.50;;;9.63;;
5616;SDS011;2830;50.656;7.568;2023-03-19T07:12:20;24.50;;;12.37;;
5616;SDS011;2830;50.656;7.568;2023-03-19T07:14:47;24.10;;;10.80;;
5616;SDS011;2830;50.656;7.568;2023-03-19T07:17:14;22.20;;;10.60;;
5616;SDS011;2830;50.656;7.568;2023-03-19T07:19:41;19.97;;;10.07;;
5616;SDS011;2830;50.656;7.568;2023-03-19T07:22:08;23.23;;;9.40;;
5616;SDS011;2830;50.656;7.568;2023-03-19T07:24:35;17.10;;;6.70;;
5616;SDS011;2830;50.656;7.568;2023-03-19T07:27:03;15.50;;;6.20;;
5616;SDS011;2830;50.656;7.568;2023-03-19T07:29:30;19.27;;;5.77;;
5616;SDS011;2830;50.656;7.568;2023-03-19T07:31:57;13.90;;;4.70;;
5616;SDS011;2830;50.656;7.568;2023-03-19T07:34:24;14.40;;;5.30;;
5616;SDS011;2830;50.656;7.568;2023-03-19T07:36:51;14.83;;;5.60;;
5616;SDS011;2830;50.656;7.568;2023-03-19T07:39:19;12.70;;;4.93;;
5616;SDS011;2830;50.656;7.568;2023-03-19T07:41:46;13.20;;;4.80;;
5616;SDS011;2830;50.656;7.568;2023-03-19T07:44:17;13.43;;;5.47;;
5616;SDS011;2830;50.656;7.568;2023-03-19T07:46:43;18.10;;;5.60;;
5616;SDS011;2830;50.656;7.568;2023-03-19T07:49:10;15.47;;;7.00;;
5616;SDS011;2830;50.656;7.568;2023-03-19T07:51:37;15.97;;;6.30;;
5616;SDS011;2830;50.656;7.568;2023-03-19T07:54:04;16.80;;;6.97;;
5616;SDS011;2830;50.656;7.568;2023-03-19T07:56:32;26.10;;;6.30;;
5616;SDS011;2830;50.656;7.568;2023-03-19T07:58:58;14.93;;;5.20;;
5616;SDS011;2830;50.656;7.568;2023-03-19T08:01:25;14.77;;;5.80;;
5616;SDS011;2830;50.656;7.568;2023-03-19T08:03:58;17.13;;;6.30;;
5616;SDS011;2830;50.656;7.568;2023-03-19T08:06:25;19.53;;;5.00;;
5616;SDS011;2830;50.656;7.568;2023-03-19T08:08:53;13.43;;;4.10;;
5616;SDS011;2830;50.656;7.568;2023-03-19T08:11:20;11.93;;;3.30;;
5616;SDS011;2830;50.656;7.568;2023-03-19T08:13:47;15.00;;;3.50;;
5616;SDS011;2830;50.656;7.568;2023-03-19T08:16:14;11.63;;;3.63;;
5616;SDS011;2830;50.656;7.568;2023-03-19T08:18:41;14.33;;;5.27;;
5616;SDS011;2830;50.656;7.568;2023-03-19T08:21:08;13.77;;;4.93;;
5616;SDS011;2830;50.656;7.568;2023-03-19T08:23:35;17.23;;;6.60;;
5616;SDS011;2830;50.656;7.568;2023-03-19T08:26:01;16.93;;;7.77;;
5616;SDS011;2830;50.656;7.568;2023-03-19T08:28:28;15.37;;;4.30;;
5616;SDS011;2830;50.656;7.568;2023-03-19T08:30:55;12.10;;;3.20;;
5616;SDS011;2830;50.656;7.568;2023-03-19T08:33:22;13.17;;;3.63;;
5616;SDS011;2830;50.656;7.568;2023-03-19T08:35:50;14.00;;;3.90;;
5616;SDS011;2830;50.656;7.568;2023-03-19T08:38:17;11.70;;;3.43;;
5616;SDS011;2830;50.656;7.568;2023-03-19T08:40:45;12.80;;;3.43;;
5616;SDS011;2830;50.656;7.568;2023-03-19T08:43:12;11.90;;;2.70;;
5616;SDS011;2830;50.656;7.568;2023-03-19T08:45:39;11.70;;;2.97;;
5616;SDS011;2830;50.656;7.568;2023-03-19T08:48:06;9.87;;;2.40;;
5616;SDS011;2830;50.656;7.568;2023-03-19T08:50:33;12.20;;;3.23;;
5616;SDS011;2830;50.656;7.568;2023-03-19T08:53:01;12.57;;;3.17;;
5616;SDS011;2830;50.656;7.568;2023-03-19T08:55:28;10.90;;;2.57;;
5616;SDS011;2830;50.656;7.568;2023-03-19T08:57:54;11.83;;;2.43;;
5616;SDS011;2830;50.656;7.568;2023-03-19T09:02:53;10.50;;;2.97;;
5616;SDS011;2830;50.656;7.568;2023-03-19T09:05:20;12.47;;;3.17;;
5616;SDS011;2830;50.656;7.568;2023-03-19T09:07:49;16.70;;;2.30;;
5616;SDS011;2830;50.656;7.568;2023-03-19T09:10:17;11.10;;;2.53;;
5616;SDS011;2830;50.656;7.568;2023-03-19T09:12:44;11.07;;;2.20;;
5616;SDS011;2830;50.656;7.568;2023-03-19T09:15:13;10.20;;;2.70;;
5616;SDS011;2830;50.656;7.568;2023-03-19T09:17:40;10.10;;;2.33;;
5616;SDS011;2830;50.656;7.568;2023-03-19T09:20:07;12.10;;;2.47;;
5616;SDS011;2830;50.656;7.568;2023-03-19T09:22:35;9.60;;;2.27;;
5616;SDS011;2830;50.656;7.568;2023-03-19T09:25:02;9.50;;;2.27;;
5616;SDS011;2830;50.656;7.568;2023-03-19T09:27:29;12.43;;;2.63;;
5616;SDS011;2830;50.656;7.568;2023-03-19T09:29:56;14.43;;;2.23;;
5616;SDS011;2830;50.656;7.568;2023-03-19T09:32:23;12.30;;;3.00;;
5616;SDS011;2830;50.656;7.568;2023-03-19T09:34:50;10.53;;;2.50;;
5616;SDS011;2830;50.656;7.568;2023-03-19T09:37:17;11.73;;;2.30;;
5616;SDS011;2830;50.656;7.568;2023-03-19T09:39:46;9.70;;;2.17;;
5616;SDS011;2830;50.656;7.568;2023-03-19T09:42:14;10.27;;;2.50;;
5616;SDS011;2830;50.656;7.568;2023-03-19T09:44:50;9.80;;;2.47;;
5616;SDS011;2830;50.656;7.568;2023-03-19T09:50:01;13.03;;;2.90;;
5616;SDS011;2830;50.656;7.568;2023-03-19T09:58:14;11.97;;;3.03;;
5616;SDS011;2830;50.656;7.568;2023-03-19T10:00:53;10.23;;;3.00;;
5616;SDS011;2830;50.656;7.568;2023-03-19T10:06:25;10.57;;;2.47;;
5616;SDS011;2830;50.656;7.568;2023-03-19T10:09:18;12.03;;;2.73;;
5616;SDS011;2830;50.656;7.568;2023-03-19T10:17:34;11.80;;;2.53;;
5616;SDS011;2830;50.656;7.568;2023-03-19T10:20:06;16.53;;;2.33;;
5616;SDS011;2830;50.656;7.568;2023-03-19T10:22:55;11.00;;;1.83;;
5616;SDS011;2830;50.656;7.568;2023-03-19T10:25:34;10.87;;;2.03;;
5616;SDS011;2830;50.656;7.568;2023-03-19T10:28:11;11.60;;;2.30;;
5616;SDS011;2830;50.656;7.568;2023-03-19T10:30:41;10.47;;;2.17;;
5616;SDS011;2830;50.656;7.568;2023-03-19T10:33:16;10.20;;;2.10;;
5616;SDS011;2830;50.656;7.568;2023-03-19T10:36:00;9.20;;;1.70;;
5616;SDS011;2830;50.656;7.568;2023-03-19T10:38:38;9.70;;;1.70;;
5616;SDS011;2830;50.656;7.568;2023-03-19T10:43:51;10.13;;;2.10;;
5616;SDS011;2830;50.656;7.568;2023-03-19T10:46:25;9.30;;;1.80;;
5616;SDS011;2830;50.656;7.568;2023-03-19T10:48:51;13.10;;;2.20;;
5616;SDS011;2830;50.656;7.568;2023-03-19T10:51:20;9.50;;;1.73;;
5616;SDS011;2830;50.656;7.568;2023-03-19T10:53:51;9.20;;;2.13;;
5616;SDS011;2830;50.656;7.568;2023-03-19T10:56:28;9.37;;;1.60;;
5616;SDS011;2830;50.656;7.568;2023-03-19T11:01:32;9.40;;;1.90;;
5616;SDS011;2830;50.656;7.568;2023-03-19T11:04:02;15.23;;;5.23;;
5616;SDS011;2830;50.656;7.568;2023-03-19T11:06:39;17.10;;;5.67;;
5616;SDS011;2830;50.656;7.568;2023-03-19T11:14:06;14.07;;;4.33;;
5616;SDS011;2830;50.656;7.568;2023-03-19T11:19:25;13.67;;;3.70;;
5616;SDS011;2830;50.656;7.568;2023-03-19T11:22:01;10.00;;;2.10;;
5616;SDS011;2830;50.656;7.568;2023-03-19T11:24:36;14.27;;;6.07;;
5616;SDS011;2830;50.656;7.568;2023-03-19T11:27:08;11.37;;;1.83;;
5616;SDS011;2830;50.656;7.568;2023-03-19T11:29:38;8.97;;;1.63;;
5616;SDS011;2830;50.656;7.568;2023-03-19T11:40:19;12.07;;;3.30;;
5616;SDS011;2830;50.656;7.568;2023-03-19T11:48:41;9.07;;;1.40;;
5616;SDS011;2830;50.656;7.568;2023-03-19T11:54:04;8.50;;;1.30;;
5616;SDS011;2830;50.656;7.568;2023-03-19T11:56:45;9.43;;;1.30;;
5616;SDS011;2830;50.656;7.568;2023-03-19T12:05:18;8.20;;;1.00;;
5616;SDS011;2830;50.656;7.568;2023-03-19T12:08:46;9.27;;;1.00;;
5616;SDS011;2830;50.656;7.568;2023-03-19T12:13:58;10.20;;;1.20;;
5616;SDS011;2830;50.656;7.568;2023-03-19T12:27:21;19.10;;;7.67;;
5616;SDS011;2830;50.656;7.568;2023-03-19T12:36:10;8.70;;;1.20;;
5616;SDS011;2830;50.656;7.568;2023-03-19T12:38:43;8.80;;;1.10;;
5616;SDS011;2830;50.656;7.568;2023-03-19T12:41:21;10.70;;;1.57;;
5616;SDS011;2830;50.656;7.568;2023-03-19T12:49:23;10.10;;;1.50;;
5616;SDS011;2830;50.656;7.568;2023-03-19T12:51:58;8.37;;;1.27;;
5616;SDS011;2830;50.656;7.568;2023-03-19T12:54:35;8.97;;;1.40;;
5616;SDS011;2830;50.656;7.568;2023-03-19T12:57:11;8.57;;;1.10;;
5616;SDS011;2830;50.656;7.568;2023-03-19T12:59:57;8.20;;;0.80;;
5616;SDS011;2830;50.656;7.568;2023-03-19T13:02:43;8.43;;;0.97;;
5616;SDS011;2830;50.656;7.568;2023-03-19T13:07:49;10.67;;;2.73;;
5616;SDS011;2830;50.656;7.568;2023-03-19T13:10:24;9.00;;;1.13;;
5616;SDS011;2830;50.656;7.568;2023-03-19T13:12:51;8.20;;;1.17;;
5616;SDS011;2830;50.656;7.568;2023-03-19T13:15:33;9.70;;;1.80;;
5616;SDS011;2830;50.656;7.568;2023-03-19T13:23:23;20.20;;;8.40;;
5616;SDS011;2830;50.656;7.568;2023-03-19T13:25:54;21.87;;;15.57;;
5616;SDS011;2830;50.656;7.568;2023-03-19T13:28:34;9.80;;;2.13;;
5616;SDS011;2830;50.656;7.568;2023-03-19T13:31:06;10.87;;;3.13;;
5616;SDS011;2830;50.656;7.568;2023-03-19T13:36:34;9.20;;;1.40;;
5616;SDS011;2830;50.656;7.568;2023-03-19T13:39:10;11.43;;;2.43;;
5616;SDS011;2830;50.656;7.568;2023-03-19T13:44:23;10.50;;;0.83;;
5616;SDS011;2830;50.656;7.568;2023-03-19T13:47:02;8.93;;;1.00;;
5616;SDS011;2830;50.656;7.568;2023-03-19T13:50:02;9.57;;;1.10;;
5616;SDS011;2830;50.656;7.568;2023-03-19T13:57:53;8.93;;;1.40;;
5616;SDS011;2830;50.656;7.568;2023-03-19T14:03:20;11.23;;;1.10;;
5616;SDS011;2830;50.656;7.568;2023-03-19T14:05:50;11.63;;;0.80;;
5616;SDS011;2830;50.656;7.568;2023-03-19T14:08:23;14.67;;;1.27;;
5616;SDS011;2830;50.656;7.568;2023-03-19T14:10:59;8.90;;;1.23;;
5616;SDS011;2830;50.656;7.568;2023-03-19T14:13:41;8.83;;;1.10;;
5616;SDS011;2830;50.656;7.568;2023-03-19T14:16:16;9.27;;;1.07;;
5616;SDS011;2830;50.656;7.568;2023-03-19T14:18:45;8.60;;;1.23;;
5616;SDS011;2830;50.656;7.568;2023-03-19T14:21:16;8.93;;;1.00;;
5616;SDS011;2830;50.656;7.568;2023-03-19T14:27:29;8.80;;;1.10;;
5616;SDS011;2830;50.656;7.568;2023-03-19T14:30:07;8.40;;;0.80;;
5616;SDS011;2830;50.656;7.568;2023-03-19T14:32:37;11.70;;;1.53;;
5616;SDS011;2830;50.656;7.568;2023-03-19T14:35:06;10.00;;;2.57;;
5616;SDS011;2830;50.656;7.568;2023-03-19T14:37:43;10.10;;;1.20;;
5616;SDS011;2830;50.656;7.568;2023-03-19T14:46:01;9.00;;;1.20;;
5616;SDS011;2830;50.656;7.568;2023-03-19T14:48:42;9.17;;;1.23;;
5616;SDS011;2830;50.656;7.568;2023-03-19T14:51:49;9.80;;;1.60;;
5616;SDS011;2830;50.656;7.568;2023-03-19T14:57:31;11.20;;;1.20;;
5616;SDS011;2830;50.656;7.568;2023-03-19T14:59:59;8.93;;;1.30;;
5616;SDS011;2830;50.656;7.568;2023-03-19T15:02:35;9.80;;;1.77;;
5616;SDS011;2830;50.656;7.568;2023-03-19T15:05:15;11.00;;;2.90;;
5616;SDS011;2830;50.656;7.568;2023-03-19T15:07:57;9.20;;;1.10;;
5616;SDS011;2830;50.656;7.568;2023-03-19T15:10:28;9.87;;;1.70;;
5616;SDS011;2830;50.656;7.568;2023-03-19T15:13:06;8.70;;;0.90;;
5616;SDS011;2830;50.656;7.568;2023-03-19T15:19:00;12.40;;;3.53;;
5616;SDS011;2830;50.656;7.568;2023-03-19T15:21:30;10.17;;;1.47;;
5616;SDS011;2830;50.656;7.568;2023-03-19T15:23:57;10.90;;;2.70;;
5616;SDS011;2830;50.656;7.568;2023-03-19T15:26:34;9.13;;;1.33;;
5616;SDS011;2830;50.656;7.568;2023-03-19T15:29:02;8.57;;;1.10;;
5616;SDS011;2830;50.656;7.568;2023-03-19T15:31:42;8.67;;;0.93;;
5616;SDS011;2830;50.656;7.568;2023-03-19T15:34:23;9.10;;;1.33;;
5616;SDS011;2830;50.656;7.568;2023-03-19T15:36:58;8.90;;;1.10;;
5616;SDS011;2830;50.656;7.568;2023-03-19T15:39:28;8.30;;;0.97;;
5616;SDS011;2830;50.656;7.568;2023-03-19T15:42:02;9.50;;;1.17;;
5616;SDS011;2830;50.656;7.568;2023-03-19T15:44:35;9.00;;;1.00;;
5616;SDS011;2830;50.656;7.568;2023-03-19T15:47:11;8.90;;;1.23;;
5616;SDS011;2830;50.656;7.568;2023-03-19T15:49:48;9.53;;;1.00;;
5616;SDS011;2830;50.656;7.568;2023-03-19T15:52:20;8.97;;;1.10;;
5616;SDS011;2830;50.656;7.568;2023-03-19T15:54:48;8.70;;;1.07;;
5616;SDS011;2830;50.656;7.568;2023-03-19T15:57:16;8.67;;;1.00;;
5616;SDS011;2830;50.656;7.568;2023-03-19T15:59:43;8.90;;;0.90;;
5616;SDS011;2830;50.656;7.568;2023-03-19T16:02:25;9.57;;;1.30;;
5616;SDS011;2830;50.656;7.568;2023-03-19T16:04:57;9.30;;;1.00;;
5616;SDS011;2830;50.656;7.568;2023-03-19T16:07:47;9.77;;;1.40;;
5616;SDS011;2830;50.656;7.568;2023-03-19T16:10:40;11.63;;;2.17;;
5616;SDS011;2830;50.656;7.568;2023-03-19T16:18:41;9.13;;;1.30;;
5616;SDS011;2830;50.656;7.568;2023-03-19T16:21:32;9.13;;;1.53;;
5616;SDS011;2830;50.656;7.568;2023-03-19T16:26:45;8.27;;;1.00;;
5616;SDS011;2830;50.656;7.568;2023-03-19T16:29:29;8.60;;;1.10;;
5616;SDS011;2830;50.656;7.568;2023-03-19T16:32:14;8.40;;;1.10;;
5616;SDS011;2830;50.656;7.568;2023-03-19T16:42:45;8.90;;;1.20;;
5616;SDS011;2830;50.656;7.568;2023-03-19T16:47:51;13.33;;;5.23;;
5616;SDS011;2830;50.656;7.568;2023-03-19T16:50:20;9.40;;;1.50;;
5616;SDS011;2830;50.656;7.568;2023-03-19T16:52:54;9.80;;;1.13;;
5616;SDS011;2830;50.656;7.568;2023-03-19T16:57:58;12.80;;;1.93;;
5616;SDS011;2830;50.656;7.568;2023-03-19T17:00:34;11.27;;;2.50;;
5616;SDS011;2830;50.656;7.568;2023-03-19T17:03:01;19.63;;;7.30;;
5616;SDS011;2830;50.656;7.568;2023-03-19T17:05:31;11.93;;;3.90;;
5616;SDS011;2830;50.656;7.568;2023-03-19T17:07:59;12.17;;;4.23;;
5616;SDS011;2830;50.656;7.568;2023-03-19T17:10:27;10.27;;;2.77;;
5616;SDS011;2830;50.656;7.568;2023-03-19T17:12:55;9.10;;;1.80;;
5616;SDS011;2830;50.656;7.568;2023-03-19T17:15:39;9.60;;;2.13;;
5616;SDS011;2830;50.656;7.568;2023-03-19T17:18:27;9.97;;;1.57;;
5616;SDS011;2830;50.656;7.568;2023-03-19T17:23:28;11.60;;;1.73;;
5616;SDS011;2830;50.656;7.568;2023-03-19T17:25:56;12.23;;;1.57;;
5616;SDS011;2830;50.656;7.568;2023-03-19T17:28:26;10.53;;;2.00;;
5616;SDS011;2830;50.656;7.568;2023-03-19T17:30:53;11.77;;;2.07;;
5616;SDS011;2830;50.656;7.568;2023-03-19T17:33:24;9.27;;;2.00;;
5616;SDS011;2830;50.656;7.568;2023-03-19T17:35:56;8.33;;;1.30;;
5616;SDS011;2830;50.656;7.568;2023-03-19T17:38:25;8.80;;;2.00;;
5616;SDS011;2830;50.656;7.568;2023-03-19T17:41:00;10.27;;;2.17;;
5616;SDS011;2830;50.656;7.568;2023-03-19T17:43:30;10.87;;;2.07;;
5616;SDS011;2830;50.656;7.568;2023-03-19T17:45:58;8.40;;;1.70;;
5616;SDS011;2830;50.656;7.568;2023-03-19T17:48:25;10.57;;;1.93;;
5616;SDS011;2830;50.656;7.568;2023-03-19T17:50:54;9.03;;;1.77;;
5616;SDS011;2830;50.656;7.568;2023-03-19T17:53:25;10.40;;;2.63;;